Time;durP1;ratioP1;P1;durP2;ratioP2;P2;SDS_P1;SDS_P2;PMS_P1;PMS_P2;Temp;Humidity;BMP_temperature;BMP_pressure;BME280_temperature;BME280_humidity;BME280_pressure;Samples;Min_cycle;Max_cycle;Signal;HPM_P1;HPM_P2
2024/01/04 00:02:23;;;;;;;24.48;16.13;;;;;;;18.11;54.72;99582.97;4938424;28;20055;-34
2024/01/04 00:04:50;;;;;;;23.63;15.40;;;;;;;18.10;54.49;99584.00;4944175;28;20055;-34
2024/01/04 00:07:17;;;;;;;22.20;14.27;;;;;;;18.08;54.67;99586.03;4946314;28;20321;-34
2024/01/04 00:09:43;;;;;;;21.50;14.10;;;;;;;18.07;54.87;99594.25;4948440;28;20071;-34
2024/01/04 00:12:10;;;;;;;22.85;14.68;;;;;;;18.06;54.58;99604.16;4943118;28;20436;-34
2024/01/04 00:14:37;;;;;;;20.20;12.80;;;;;;;18.05;54.93;99612.38;4941163;28;20059;-34
2024/01/04 00:17:03;;;;;;;22.27;14.60;;;;;;;18.03;55.14;99614.41;4941520;28;20048;-34
2024/01/04 00:19:30;;;;;;;24.92;14.75;;;;;;;18.00;54.65;99610.25;4943709;28;20047;-34
2024/01/04 00:21:57;;;;;;;21.95;14.25;;;;;;;17.99;54.99;99614.78;4943505;28;20063;-34
2024/01/04 00:24:23;;;;;;;23.25;14.73;;;;;;;17.97;55.04;99616.81;4942870;28;20070;-34
2024/01/04 00:26:50;;;;;;;21.23;13.70;;;;;;;17.96;55.28;99623.19;4944290;28;20066;-34
2024/01/04 00:29:16;;;;;;;19.55;12.95;;;;;;;17.95;54.75;99621.53;4944364;28;20055;-34
2024/01/04 00:31:43;;;;;;;19.65;12.75;;;;;;;17.93;54.88;99630.75;4946417;28;20071;-34
2024/01/04 00:34:10;;;;;;;20.95;13.55;;;;;;;17.92;55.01;99639.81;4943865;28;20105;-34
2024/01/04 00:36:36;;;;;;;20.35;12.07;;;;;;;17.91;55.03;99648.88;4946109;28;20059;-34
2024/01/04 00:39:03;;;;;;;20.33;13.18;;;;;;;17.88;55.42;99642.03;4943697;28;20051;-34
2024/01/04 00:41:30;;;;;;;18.85;12.50;;;;;;;17.88;55.14;99650.06;4945620;28;20050;-34
2024/01/04 00:43:57;;;;;;;20.48;13.32;;;;;;;17.87;55.05;99652.94;4941661;28;20363;-34
2024/01/04 00:46:23;;;;;;;18.45;12.10;;;;;;;17.86;55.33;99667.38;4941661;28;20055;-34
2024/01/04 00:48:50;;;;;;;19.75;12.73;;;;;;;17.85;55.40;99666.53;4942442;28;20058;-34
2024/01/04 00:51:17;;;;;;;19.17;12.25;;;;;;;17.83;55.29;99673.91;4942908;28;20049;-34
2024/01/04 00:53:44;;;;;;;18.30;12.50;;;;;;;17.82;55.14;99672.25;4945388;28;20079;-34
2024/01/04 00:56:10;;;;;;;17.67;11.75;;;;;;;17.82;55.41;99682.16;4948353;28;20074;-34
2024/01/04 00:58:37;;;;;;;18.85;11.73;;;;;;;17.81;55.44;99688.50;4945637;28;20186;-34
2024/01/04 01:01:04;;;;;;;20.52;12.18;;;;;;;17.80;55.44;99694.88;4946037;28;20431;-34
2024/01/04 01:03:31;;;;;;;16.92;11.32;;;;;;;17.79;55.07;99702.09;4940852;28;20059;-34
2024/01/04 01:05:57;;;;;;;17.35;11.07;;;;;;;17.79;55.14;99706.63;4945903;28;20212;-34
2024/01/04 01:08:25;;;;;;;18.05;12.15;;;;;;;17.78;55.35;99710.31;4948944;28;20046;-34
2024/01/04 01:10:51;;;;;;;17.00;10.60;;;;;;;17.76;55.32;99716.66;4946563;28;20055;-34
2024/01/04 01:13:20;;;;;;;18.65;11.15;;;;;;;17.76;55.48;99726.56;4943308;28;20063;-34
2024/01/04 01:15:48;;;;;;;18.15;11.30;;;;;;;17.74;55.43;99724.06;4942098;28;20186;-34
2024/01/04 01:18:15;;;;;;;16.95;10.50;;;;;;;17.75;55.48;99728.41;4943716;28;20139;-34
2024/01/04 01:20:42;;;;;;;14.20;9.93;;;;;;;17.73;55.48;99730.41;4949730;28;20054;-34
2024/01/04 01:23:08;;;;;;;17.20;10.82;;;;;;;17.71;55.44;99732.44;4938794;28;20227;-34
2024/01/04 01:25:35;;;;;;;14.23;10.40;;;;;;;17.72;55.27;99741.28;4948311;28;20110;-34
2024/01/04 01:28:02;;;;;;;14.18;9.68;;;;;;;17.70;55.64;99746.84;4946613;28;20056;-34
2024/01/04 01:30:29;;;;;;;14.93;10.07;;;;;;;17.70;55.64;99752.22;4946466;28;20313;-34
2024/01/04 01:32:56;;;;;;;14.98;10.13;;;;;;;17.69;55.50;99753.22;4947207;28;20043;-34
2024/01/04 01:35:23;;;;;;;13.48;9.10;;;;;;;17.68;55.42;99759.56;4943584;28;20134;-34
2024/01/04 01:37:50;;;;;;;15.70;9.80;;;;;;;17.68;55.54;99761.44;4945990;28;20125;-34
2024/01/04 01:40:16;;;;;;;14.57;9.90;;;;;;;17.66;55.89;99774.19;4948835;29;20051;-34
2024/01/04 01:42:47;;;;;;;16.55;10.05;;;;;;;17.65;55.59;99784.06;4944264;28;20063;-34
2024/01/04 01:45:17;;;;;;;13.05;8.88;;;;;;;17.65;55.83;99792.13;4946506;28;20062;-34
2024/01/04 01:47:47;;;;;;;12.82;7.82;;;;;;;17.63;55.44;99791.44;4949617;28;20058;-34
2024/01/04 01:50:17;;;;;;;14.40;8.95;;;;;;;17.64;55.42;99794.94;4945775;28;20051;-34
2024/01/04 01:52:44;;;;;;;12.20;8.13;;;;;;;17.63;55.67;99802.16;4948300;28;20051;-34
2024/01/04 01:55:13;;;;;;;12.00;7.95;;;;;;;17.61;55.49;99811.38;4947907;28;20051;-34
2024/01/04 01:57:40;;;;;;;14.07;8.65;;;;;;;17.61;55.83;99803.34;4945311;28;20122;-34
2024/01/04 02:00:09;;;;;;;13.30;8.48;;;;;;;17.60;55.70;99807.03;4945332;28;20435;-34
2024/01/04 02:02:36;;;;;;;14.27;8.30;;;;;;;17.59;55.66;99808.06;4947408;28;20078;-34
2024/01/04 02:05:03;;;;;;;13.38;8.00;;;;;;;17.58;56.07;99809.91;4947568;28;20086;-34
2024/01/04 02:07:30;;;;;;;13.35;8.18;;;;;;;17.58;55.95;99809.06;4947492;28;21473;-34
2024/01/04 02:09:57;;;;;;;13.32;8.18;;;;;;;17.57;55.77;99816.28;4945776;29;20150;-34
2024/01/04 02:12:25;;;;;;;11.52;7.55;;;;;;;17.57;55.84;99823.44;4948249;29;20047;-34
2024/01/04 02:14:54;;;;;;;11.68;7.65;;;;;;;17.56;55.68;99827.16;4945845;29;20063;-34
2024/01/04 02:17:22;;;;;;;10.35;7.15;;;;;;;17.57;55.80;99831.50;4947802;29;20063;-34
2024/01/04 02:19:49;;;;;;;11.40;7.30;;;;;;;17.54;56.23;99835.38;4948992;29;20173;-34
2024/01/04 02:22:17;;;;;;;12.10;7.38;;;;;;;17.53;55.67;99841.75;4947885;29;20083;-34
2024/01/04 02:24:44;;;;;;;11.55;7.95;;;;;;;17.53;55.67;99841.75;4947956;28;20046;-34
2024/01/04 02:27:12;;;;;;;10.77;7.28;;;;;;;17.52;55.97;99853.44;4944955;28;20086;-34
2024/01/04 02:29:39;;;;;;;10.32;7.00;;;;;;;17.51;55.93;99857.16;4946691;28;20055;-34
2024/01/04 02:32:06;;;;;;;10.75;7.22;;;;;;;17.51;55.82;99857.16;4946578;28;20062;-34
2024/01/04 02:34:33;;;;;;;11.63;6.97;;;;;;;17.51;55.87;99857.97;4944863;28;20047;-34
2024/01/04 02:36:59;;;;;;;11.23;6.93;;;;;;;17.50;55.94;99860.84;4941734;29;20087;-35
2024/01/04 02:39:26;;;;;;;10.38;6.82;;;;;;;17.50;56.30;99860.84;4941845;28;20051;-34
2024/01/04 02:41:53;;;;;;;10.23;6.80;;;;;;;17.50;55.77;99866.19;4942941;28;20051;-34
2024/01/04 02:44:19;;;;;;;9.65;6.40;;;;;;;17.49;55.78;99868.06;4942777;28;20051;-34
2024/01/04 02:46:48;;;;;;;11.45;6.53;;;;;;;17.48;55.59;99871.72;4944722;28;20153;-34
2024/01/04 02:49:14;;;;;;;10.07;6.60;;;;;;;17.48;55.92;99878.91;4942892;28;20125;-34
2024/01/04 02:51:41;;;;;;;11.90;6.95;;;;;;;17.48;56.20;99884.28;4943112;28;20352;-34
2024/01/04 02:54:08;;;;;;;9.95;6.38;;;;;;;17.47;55.96;99888.81;4942115;28;20052;-34
2024/01/04 02:56:35;;;;;;;9.57;6.05;;;;;;;17.47;55.95;99887.97;4945995;28;20130;-34
2024/01/04 02:59:01;;;;;;;8.00;5.72;;;;;;;17.46;55.80;99891.66;4944701;28;20431;-34
2024/01/04 03:01:28;;;;;;;9.82;6.32;;;;;;;17.47;55.93;99887.97;4945470;28;20082;-34
2024/01/04 03:03:57;;;;;;;8.23;5.93;;;;;;;17.45;56.05;99890.00;4944797;28;20133;-34
2024/01/04 03:06:27;;;;;;;11.82;6.80;;;;;;;17.45;55.97;99884.66;4944297;28;20082;-34
2024/01/04 03:08:53;;;;;;;10.50;6.57;;;;;;;17.44;56.09;99893.66;4943194;28;20043;-34
2024/01/04 03:11:20;;;;;;;10.07;5.97;;;;;;;17.44;55.94;99896.34;4943528;28;20047;-34
2024/01/04 03:13:47;;;;;;;7.55;5.10;;;;;;;17.42;55.91;99893.84;4941701;28;20084;-34
2024/01/04 03:16:14;;;;;;;9.15;5.80;;;;;;;17.43;55.91;99902.72;4944806;28;20059;-34
2024/01/04 03:18:40;;;;;;;9.82;5.35;;;;;;;17.43;55.73;99913.44;4941165;28;20066;-34
2024/01/04 03:21:08;;;;;;;9.05;4.80;;;;;;;17.41;55.87;99908.25;4946439;28;20051;-34
2024/01/04 03:23:35;;;;;;;8.68;5.57;;;;;;;17.41;55.81;99918.97;4946950;28;20047;-34
2024/01/04 03:26:02;;;;;;;8.65;5.28;;;;;;;17.40;55.85;99914.59;4943030;28;20051;-34
2024/01/04 03:28:29;;;;;;;7.25;5.18;;;;;;;17.41;55.53;99918.16;4945354;28;20410;-34
2024/01/04 03:30:55;;;;;;;8.10;4.97;;;;;;;17.41;55.94;99926.19;4944243;28;20051;-34
2024/01/04 03:33:22;;;;;;;7.38;4.95;;;;;;;17.39;56.12;99929.00;4942834;28;20114;-34
2024/01/04 03:35:49;;;;;;;7.63;5.00;;;;;;;17.39;56.11;99929.00;4943774;28;20066;-34
2024/01/04 03:38:16;;;;;;;6.82;4.78;;;;;;;17.39;56.00;99925.50;4944427;28;20094;-34
2024/01/04 03:40:42;;;;;;;6.57;4.82;;;;;;;17.39;55.80;99922.81;4943269;28;20688;-34
2024/01/04 03:43:09;;;;;;;9.65;5.10;;;;;;;17.37;56.18;99923.00;4942742;28;20047;-34
2024/01/04 03:45:36;;;;;;;8.35;5.57;;;;;;;17.38;55.82;99924.69;4944301;28;20123;-34
2024/01/04 03:48:02;;;;;;;7.82;4.93;;;;;;;17.37;55.82;99928.38;4942322;28;20051;-34
2024/01/04 03:50:29;;;;;;;7.10;4.80;;;;;;;17.37;55.78;99939.09;4945042;28;20135;-34
2024/01/04 03:52:56;;;;;;;6.82;4.60;;;;;;;17.35;55.83;99943.75;4947536;28;20055;-34
2024/01/04 03:55:23;;;;;;;7.85;4.47;;;;;;;17.36;56.05;99944.59;4947261;28;20073;-34
2024/01/04 03:57:50;;;;;;;6.40;4.20;;;;;;;17.36;55.96;99940.06;4943092;28;20055;-34
2024/01/04 04:00:17;;;;;;;6.57;4.40;;;;;;;17.35;55.95;99934.88;4942654;28;20959;-34
2024/01/04 04:02:44;;;;;;;7.22;4.32;;;;;;;17.35;55.94;99945.59;4945424;28;20051;-34
2024/01/04 04:05:11;;;;;;;6.90;4.07;;;;;;;17.35;55.68;99953.63;4945648;28;20146;-34
2024/01/04 04:07:38;;;;;;;7.47;4.57;;;;;;;17.34;55.92;99970.72;4949115;28;20518;-34
2024/01/04 04:10:05;;;;;;;6.13;4.22;;;;;;;17.33;56.25;99964.53;4949108;29;20079;-34
2024/01/04 04:12:31;;;;;;;7.25;4.28;;;;;;;17.32;56.00;99981.59;4946915;28;20099;-34
2024/01/04 04:14:58;;;;;;;5.75;3.67;;;;;;;17.31;55.94;99974.56;4944482;28;20094;-34
2024/01/04 04:17:25;;;;;;;6.38;4.30;;;;;;;17.31;56.29;99990.63;4945191;28;20058;-34
2024/01/04 04:19:51;;;;;;;5.90;4.07;;;;;;;17.31;56.09;99989.81;4946217;28;20431;-34
2024/01/04 04:22:18;;;;;;;8.90;4.80;;;;;;;17.28;55.98;99991.81;4944514;28;20167;-34
2024/01/04 04:24:45;;;;;;;6.93;4.40;;;;;;;17.28;55.93;99993.66;4941728;28;20402;-34
2024/01/04 04:27:11;;;;;;;5.85;3.80;;;;;;;17.28;55.91;99974.91;4944548;28;20479;-34
2024/01/04 04:29:41;;;;;;;5.05;3.67;;;;;;;17.27;56.34;99992.81;4946315;28;20789;-34
2024/01/04 04:32:08;;;;;;;6.45;4.05;;;;;;;17.26;56.13;99998.34;4949955;28;20454;-34
2024/01/04 04:34:35;;;;;;;5.68;3.65;;;;;;;17.26;56.32;99993.84;4949088;28;20066;-34
2024/01/04 04:37:03;;;;;;;5.72;3.47;;;;;;;17.26;56.31;99977.75;4944294;28;20386;-34
2024/01/04 04:39:29;;;;;;;6.80;3.60;;;;;;;17.24;56.16;99989.63;4948340;28;20051;-34
2024/01/04 04:41:58;;;;;;;5.38;3.72;;;;;;;17.25;55.61;100002.03;4947875;28;20422;-34
2024/01/04 04:44:24;;;;;;;6.90;4.22;;;;;;;17.24;56.06;100001.19;4948506;28;20044;-34
2024/01/04 04:46:52;;;;;;;5.10;3.33;;;;;;;17.24;56.07;100000.34;4945890;28;20079;-34
2024/01/04 04:49:18;;;;;;;6.55;3.63;;;;;;;17.23;56.21;100009.41;4948985;28;20384;-34
2024/01/04 04:51:48;;;;;;;4.05;3.28;;;;;;;17.21;56.32;100009.56;4947452;28;20098;-34
2024/01/04 04:54:16;;;;;;;4.55;2.90;;;;;;;17.22;56.06;100021.13;4949016;28;20138;-34
2024/01/04 04:56:43;;;;;;;6.72;3.90;;;;;;;17.21;56.28;100016.78;4947114;28;20047;-34
2024/01/04 04:59:12;;;;;;;5.10;3.38;;;;;;;17.20;56.29;100023.13;4947373;28;20145;-34
2024/01/04 05:01:43;;;;;;;5.45;3.53;;;;;;;17.20;56.04;100037.34;4949519;28;20171;-34
2024/01/04 05:04:10;;;;;;;4.00;3.00;;;;;;;17.20;56.48;100031.97;4948351;28;20138;-34
2024/01/04 05:06:37;;;;;;;4.03;2.75;;;;;;;17.21;56.26;100030.16;4944832;28;20142;-34
2024/01/04 05:09:04;;;;;;;4.75;3.35;;;;;;;17.20;55.92;100031.97;4943272;28;20055;-34
2024/01/04 05:11:31;;;;;;;4.75;3.05;;;;;;;17.20;56.31;100039.19;4948092;28;20075;-34
2024/01/04 05:13:58;;;;;;;4.35;3.08;;;;;;;17.20;56.49;100041.84;4946218;28;20074;-34
2024/01/04 05:16:25;;;;;;;4.47;3.00;;;;;;;17.19;56.00;100042.88;4948647;28;20079;-34
2024/01/04 05:18:51;;;;;;;4.38;2.97;;;;;;;17.18;56.44;100047.41;4947030;28;20134;-34
2024/01/04 05:21:18;;;;;;;4.47;2.67;;;;;;;17.19;56.24;100056.25;4945071;29;20047;-34
2024/01/04 05:23:45;;;;;;;4.80;3.15;;;;;;;17.19;56.11;100056.25;4946207;28;20051;-34
2024/01/04 05:26:20;;;;;;;4.97;2.90;;;;;;;17.17;56.29;100060.97;4948385;29;20054;-34
2024/01/04 05:28:47;;;;;;;4.43;2.80;;;;;;;17.18;56.23;100065.31;4950618;29;20110;-34
2024/01/04 05:31:15;;;;;;;3.80;3.00;;;;;;;17.18;56.22;100067.97;4949938;28;20356;-34
2024/01/04 05:33:42;;;;;;;5.28;2.80;;;;;;;17.18;56.03;100063.47;4946951;28;20417;-34
2024/01/04 05:36:09;;;;;;;4.20;2.90;;;;;;;17.16;56.24;100061.94;4947787;28;20074;-34
2024/01/04 05:38:36;;;;;;;4.70;2.70;;;;;;;17.16;56.27;100073.50;4949780;29;20073;-34
2024/01/04 05:41:04;;;;;;;3.50;2.00;;;;;;;17.17;55.86;100082.38;4948805;29;20134;-34
2024/01/04 05:43:33;;;;;;;3.97;2.45;;;;;;;17.16;56.34;100076.16;4944407;29;20055;-34
2024/01/04 05:46:06;;;;;;;3.97;2.72;;;;;;;17.16;56.38;100078.00;4948731;29;20074;-34
2024/01/04 05:48:32;;;;;;;3.92;2.67;;;;;;;17.15;55.99;100085.22;4944992;29;20127;-34
2024/01/04 05:50:59;;;;;;;3.75;2.63;;;;;;;17.15;56.33;100090.56;4949176;28;20047;-34
2024/01/04 05:53:26;;;;;;;2.83;2.03;;;;;;;17.14;55.77;100082.72;4949175;29;20431;-34
2024/01/04 05:55:53;;;;;;;3.28;2.58;;;;;;;17.14;56.13;100096.09;4947674;29;20441;-34
2024/01/04 05:58:20;;;;;;;3.58;2.58;;;;;;;17.14;56.31;100101.44;4949152;29;20049;-34
2024/01/04 06:00:47;;;;;;;4.45;2.55;;;;;;;17.14;56.45;100104.97;4948890;28;20059;-34
2024/01/04 06:03:14;;;;;;;3.70;2.25;;;;;;;17.14;56.13;100106.81;4947802;29;20328;-34
2024/01/04 06:05:40;;;;;;;4.38;2.78;;;;;;;17.12;56.34;100108.81;4949282;28;20061;-34
2024/01/04 06:08:07;;;;;;;4.78;2.30;;;;;;;17.12;55.98;100117.66;4948968;29;20465;-34
2024/01/04 06:10:34;;;;;;;2.85;2.42;;;;;;;17.12;55.89;100115.00;4947739;29;20048;-34
2024/01/04 06:13:02;;;;;;;2.22;1.80;;;;;;;17.12;56.37;100123.03;4948065;28;20111;-34
2024/01/04 06:15:28;;;;;;;2.88;2.17;;;;;;;17.12;56.22;100133.72;4948704;28;20109;-34
2024/01/04 06:17:55;;;;;;;3.03;1.92;;;;;;;17.11;56.23;100128.56;4948125;28;20051;-34
2024/01/04 06:20:22;;;;;;;4.05;2.35;;;;;;;17.11;56.11;100137.41;4948523;28;20142;-34
2024/01/04 06:22:51;;;;;;;2.88;2.10;;;;;;;17.11;55.79;100137.41;4945868;28;20051;-34
2024/01/04 06:25:19;;;;;;;3.45;2.35;;;;;;;17.11;56.28;100139.25;4946882;28;20090;-34
2024/01/04 06:27:45;;;;;;;2.90;2.10;;;;;;;17.11;55.88;100147.28;4945251;29;20055;-34
2024/01/04 06:30:13;;;;;;;3.17;2.15;;;;;;;17.10;56.41;100148.31;4947108;29;20146;-34
2024/01/04 06:32:39;;;;;;;3.53;2.50;;;;;;;17.09;56.28;100152.81;4945322;29;20103;-34
2024/01/04 06:35:06;;;;;;;2.60;2.05;;;;;;;17.09;56.27;100152.81;4945999;29;20054;-34
2024/01/04 06:37:33;;;;;;;2.35;2.00;;;;;;;17.09;56.37;100152.81;4946440;28;20470;-34
2024/01/04 06:40:00;;;;;;;3.58;2.15;;;;;;;17.08;56.13;100161.84;4945809;29;20067;-34
2024/01/04 06:42:26;;;;;;;3.03;2.13;;;;;;;17.08;56.63;100167.19;4947610;29;20050;-34
2024/01/04 06:44:53;;;;;;;3.83;2.00;;;;;;;17.09;55.79;100168.91;4946956;29;20074;-34
2024/01/04 06:47:20;;;;;;;3.95;1.92;;;;;;;17.08;56.11;100169.88;4945131;28;20134;-34
2024/01/04 06:49:46;;;;;;;3.60;2.10;;;;;;;17.08;56.48;100172.56;4940747;28;20086;-34
2024/01/04 06:52:13;;;;;;;3.15;2.22;;;;;;;17.08;56.59;100177.06;4939923;28;20047;-34
2024/01/04 06:54:40;;;;;;;3.03;1.95;;;;;;;17.07;56.19;100176.22;4945162;28;20047;-34
2024/01/04 06:57:06;;;;;;;3.22;1.80;;;;;;;17.07;56.05;100180.75;4945076;28;20391;-34
2024/01/04 06:59:34;;;;;;;3.22;2.05;;;;;;;17.06;56.28;100182.59;4943472;29;20047;-34
2024/01/04 07:02:04;;;;;;;2.20;1.80;;;;;;;17.05;55.89;100178.25;4947050;28;20703;-34
2024/01/04 07:04:31;;;;;;;2.22;1.80;;;;;;;17.05;56.29;100188.13;4946218;28;20101;-34
2024/01/04 07:06:58;;;;;;;3.63;2.13;;;;;;;17.03;56.41;100186.44;4943068;29;20051;-34
2024/01/04 07:09:24;;;;;;;2.70;1.83;;;;;;;17.04;56.44;100187.25;4944904;29;20051;-34
2024/01/04 07:11:52;;;;;;;2.63;1.73;;;;;;;17.03;56.66;100194.47;4944237;29;20459;-34
2024/01/04 07:14:18;;;;;;;2.30;1.67;;;;;;;17.03;56.35;100201.66;4942119;29;20055;-34
2024/01/04 07:16:46;;;;;;;3.08;1.95;;;;;;;17.04;56.33;100216.72;4946428;28;20074;-34
2024/01/04 07:19:13;;;;;;;2.08;1.52;;;;;;;17.03;56.42;100209.69;4943655;29;20071;-34
2024/01/04 07:21:41;;;;;;;2.00;1.48;;;;;;;17.03;56.75;100217.72;4943256;29;20319;-34
2024/01/04 07:24:08;;;;;;;3.08;2.00;;;;;;;17.02;56.62;100216.06;4940635;28;20079;-34
2024/01/04 07:26:34;;;;;;;6.03;2.50;;;;;;;17.02;56.66;100218.72;4941076;28;20479;-34
2024/01/04 07:29:01;;;;;;;3.17;1.95;;;;;;;17.01;56.70;100219.75;4942369;28;20052;-34
2024/01/04 07:31:28;;;;;;;3.00;1.92;;;;;;;17.01;56.74;100219.75;4945079;28;20047;-34
2024/01/04 07:33:55;;;;;;;3.63;2.60;;;;;;;17.01;56.59;100225.09;4942228;28;20435;-34
2024/01/04 07:36:21;;;;;;;5.30;2.90;;;;;;;17.01;56.04;100230.44;4941330;28;20067;-34
2024/01/04 07:38:48;;;;;;;4.35;2.50;;;;;;;17.00;56.44;100232.28;4943452;28;20052;-34
2024/01/04 07:41:15;;;;;;;5.97;3.28;;;;;;;17.00;56.34;100236.78;4941580;28;20047;-34
2024/01/04 07:43:42;;;;;;;4.25;3.10;;;;;;;17.00;56.14;100242.13;4942440;28;20109;-34
2024/01/04 07:46:08;;;;;;;5.35;3.78;;;;;;;16.99;56.70;100243.97;4942960;28;20072;-34
2024/01/04 07:48:35;;;;;;;5.65;3.88;;;;;;;17.00;56.63;100247.50;4945299;28;20058;-34
2024/01/04 07:51:02;;;;;;;6.40;4.00;;;;;;;16.99;56.55;100251.16;4942511;28;20059;-34
2024/01/04 07:53:28;;;;;;;6.45;3.63;;;;;;;16.99;56.27;100243.97;4945134;28;20130;-34
2024/01/04 07:55:55;;;;;;;6.85;4.43;;;;;;;16.99;56.46;100253.84;4947154;29;20055;-34
2024/01/04 07:58:22;;;;;;;6.63;4.55;;;;;;;16.97;56.12;100254.03;4946004;28;20048;-34
2024/01/04 08:00:48;;;;;;;7.15;4.90;;;;;;;16.98;56.15;100253.00;4943926;29;20454;-34
2024/01/04 08:03:15;;;;;;;7.20;4.95;;;;;;;16.97;56.12;100262.06;4944214;29;20052;-34
2024/01/04 08:05:41;;;;;;;9.00;5.50;;;;;;;16.97;56.47;100263.91;4943735;29;20135;-34
2024/01/04 08:08:08;;;;;;;8.93;4.90;;;;;;;16.97;56.34;100266.56;4945007;29;20435;-34
2024/01/04 08:10:35;;;;;;;9.07;5.28;;;;;;;16.97;56.56;100266.56;4947684;28;20133;-34
2024/01/04 08:13:02;;;;;;;8.00;5.65;;;;;;;16.95;56.14;100266.72;4945960;28;20063;-35
2024/01/04 08:15:33;;;;;;;9.63;5.68;;;;;;;16.96;56.19;100273.75;4947912;28;20106;-34
2024/01/04 08:18:03;;;;;;;9.05;5.95;;;;;;;16.95;56.16;100273.91;4946141;29;20061;-34
2024/01/04 08:20:33;;;;;;;8.60;6.13;;;;;;;16.97;56.27;100282.63;4948581;28;20134;-34
2024/01/04 08:23:00;;;;;;;8.68;5.85;;;;;;;16.97;56.55;100288.00;4944608;28;20130;-34
2024/01/04 08:25:27;;;;;;;8.10;5.63;;;;;;;16.96;56.31;100281.78;4945145;28;20051;-34
2024/01/04 08:27:54;;;;;;;8.68;6.38;;;;;;;16.95;56.06;100282.78;4945802;28;20416;-34
2024/01/04 08:30:21;;;;;;;11.52;7.30;;;;;;;16.95;56.41;100282.78;4946102;29;20154;-34
2024/01/04 08:32:48;;;;;;;10.30;7.28;;;;;;;16.95;56.59;100287.28;4948979;29;20058;-34
2024/01/04 08:35:17;;;;;;;10.93;6.78;;;;;;;16.95;55.75;100285.44;4945688;29;20083;-34
2024/01/04 08:37:45;;;;;;;12.30;8.13;;;;;;;16.96;56.36;100289.81;4944872;28;20059;-37
2024/01/04 08:40:13;;;;;;;12.98;8.32;;;;;;;16.97;56.27;100279.97;4949067;28;20063;-34
2024/01/04 08:42:39;;;;;;;16.95;10.43;;;;;;;16.99;56.49;100280.63;4946840;28;20043;-34
2024/01/04 08:45:07;;;;;;;23.13;14.43;;;;;;;17.01;56.61;100295.53;4943364;28;20082;-34
2024/01/04 08:47:33;;;;;;;24.45;15.40;;;;;;;17.01;56.34;100294.69;4949046;29;20359;-35
2024/01/04 08:50:00;;;;;;;26.05;17.27;;;;;;;17.01;56.64;100295.53;4949690;28;20054;-35
2024/01/04 08:52:28;;;;;;;26.67;17.45;;;;;;;17.01;56.47;100300.91;4945483;28;20359;-35
2024/01/04 08:54:55;;;;;;;27.00;18.58;;;;;;;17.01;57.05;100300.91;4944980;29;20419;-35
2024/01/04 08:57:22;;;;;;;25.60;17.25;;;;;;;17.01;56.66;100297.38;4948946;28;20059;-34
2024/01/04 08:59:49;;;;;;;26.10;17.55;;;;;;;17.02;56.81;100305.25;4946682;29;20384;-35
2024/01/04 09:02:17;;;;;;;28.48;17.88;;;;;;;17.03;56.14;100311.44;4946251;28;20415;-35
2024/01/04 09:04:43;;;;;;;23.08;15.52;;;;;;;17.03;56.57;100314.09;4945187;28;20396;-35
2024/01/04 09:07:12;;;;;;;28.10;18.17;;;;;;;17.03;56.29;100322.13;4946286;29;20059;-34
2024/01/04 09:09:40;;;;;;;25.98;16.98;;;;;;;17.04;56.20;100315.78;4945441;29;20168;-35
2024/01/04 09:12:07;;;;;;;26.10;16.85;;;;;;;17.05;56.46;100320.16;4943165;28;20057;-34
2024/01/04 09:14:33;;;;;;;26.63;17.60;;;;;;;17.05;55.95;100320.16;4945974;28;20059;-35
2024/01/04 09:17:00;;;;;;;25.60;16.95;;;;;;;17.04;56.38;100318.47;4947077;28;20051;-35
2024/01/04 09:19:27;;;;;;;28.58;18.88;;;;;;;17.05;56.24;100327.34;4946720;28;20212;-35
2024/01/04 09:21:55;;;;;;;27.73;16.35;;;;;;;17.05;56.48;100330.88;4946994;29;20051;-35
2024/01/04 09:24:23;;;;;;;26.10;17.83;;;;;;;17.06;56.00;100332.53;4945748;29;20176;-35
2024/01/04 09:26:50;;;;;;;25.20;16.98;;;;;;;17.07;55.94;100334.22;4947069;29;20050;-35
2024/01/04 09:29:17;;;;;;;24.70;17.10;;;;;;;17.07;56.31;100333.38;4946492;29;20054;-35
2024/01/04 09:31:44;;;;;;;26.60;16.73;;;;;;;17.08;56.81;100341.22;4945108;29;20329;-35
2024/01/04 09:34:11;;;;;;;27.95;17.80;;;;;;;17.08;56.47;100343.91;4944954;28;20602;-35
2024/01/04 09:36:38;;;;;;;26.88;17.45;;;;;;;17.08;56.27;100351.94;4941743;28;20055;-34
2024/01/04 09:39:04;;;;;;;26.70;17.20;;;;;;;17.09;56.58;100350.13;4947869;28;20071;-35
2024/01/04 09:41:33;;;;;;;26.15;16.38;;;;;;;17.10;56.16;100346.44;4942198;29;20146;-35
2024/01/04 09:44:02;;;;;;;25.02;16.88;;;;;;;17.11;56.44;100350.78;4948381;28;20099;-35
2024/01/04 09:46:38;;;;;;;25.73;16.60;;;;;;;17.09;56.43;100342.94;4947197;29;20052;-35
2024/01/04 09:49:07;;;;;;;25.92;17.38;;;;;;;17.10;55.85;100355.31;4940343;28;20118;-35
2024/01/04 09:51:39;;;;;;;23.73;16.25;;;;;;;17.11;56.70;100357.00;4943336;28;20394;-35
2024/01/04 09:54:08;;;;;;;23.70;16.38;;;;;;;17.13;56.18;100354.16;4942226;29;20055;-35
2024/01/04 09:56:42;;;;;;;23.40;15.90;;;;;;;17.12;56.36;100364.00;4942034;29;20439;-35
2024/01/04 09:59:13;;;;;;;25.65;16.40;;;;;;;17.14;56.03;100371.91;4944725;29;20051;-35
2024/01/04 10:01:40;;;;;;;24.50;16.42;;;;;;;17.14;55.85;100367.38;4944006;29;20094;-35
2024/01/04 10:04:07;;;;;;;23.92;15.10;;;;;;;17.14;56.04;100380.78;4943833;29;20486;-34
2024/01/04 10:06:37;;;;;;;23.58;15.68;;;;;;;17.14;56.11;100375.41;4944990;29;20062;-35
2024/01/04 10:09:16;;;;;;;23.98;16.08;;;;;;;17.14;55.92;100378.09;4944238;29;20339;-35
2024/01/04 10:11:58;;;;;;;23.45;15.38;;;;;;;17.15;55.61;100379.78;4946474;29;20052;-35
2024/01/04 10:14:27;;;;;;;22.48;15.15;;;;;;;17.19;56.05;100382.97;4944428;29;20059;-35
2024/01/04 10:16:57;;;;;;;23.52;15.73;;;;;;;17.20;56.28;100390.84;4946790;29;20070;-35
2024/01/04 10:19:26;;;;;;;22.83;15.30;;;;;;;17.21;56.05;100387.19;4946961;28;20106;-35
2024/01/04 10:21:52;;;;;;;23.67;15.70;;;;;;;17.21;56.05;100397.06;4946356;28;20102;-35
2024/01/04 10:24:25;;;;;;;24.10;15.68;;;;;;;17.21;56.61;100397.91;4943004;28;20146;-35
2024/01/04 10:26:57;;;;;;;22.65;15.35;;;;;;;17.23;56.02;100395.88;4944738;28;20133;-35
2024/01/04 10:29:25;;;;;;;23.20;15.75;;;;;;;17.24;56.01;100400.22;4941549;28;20051;-35
2024/01/04 10:32:09;;;;;;;21.45;13.98;;;;;;;17.22;55.71;100396.88;4943300;28;20082;-35
2024/01/04 10:34:36;;;;;;;22.05;15.18;;;;;;;17.26;55.79;100395.56;4943966;28;20065;-35
2024/01/04 10:37:08;;;;;;;24.13;15.23;;;;;;;17.26;55.95;100387.53;4949667;28;20171;-34
2024/01/04 10:39:38;;;;;;;25.58;15.40;;;;;;;17.26;55.93;100384.84;4947478;29;20055;-34
2024/01/04 10:42:06;;;;;;;23.08;13.88;;;;;;;17.28;56.08;100388.19;4946083;29;20390;-43
2024/01/04 10:44:35;;;;;;;29.25;15.35;;;;;;;17.31;55.99;100396.94;4946776;28;20456;-43
2024/01/04 10:47:05;;;;;;;24.80;14.63;;;;;;;17.31;56.18;100399.59;4942339;29;20058;-44
2024/01/04 10:49:31;;;;;;;26.67;14.75;;;;;;;17.30;55.95;100401.44;4943583;28;20134;-44
2024/01/04 10:52:00;;;;;;;22.15;14.20;;;;;;;17.29;56.51;100407.81;4945724;29;20055;-44
2024/01/04 10:54:33;;;;;;;24.42;14.27;;;;;;;17.28;56.10;100412.31;4943587;28;20047;-44
2024/01/04 10:57:01;;;;;;;21.08;13.27;;;;;;;17.28;56.95;100404.28;4946420;29;20074;-43
2024/01/04 10:59:29;;;;;;;23.67;13.88;;;;;;;17.30;56.01;100416.69;4939658;29;20054;-44
2024/01/04 11:01:59;;;;;;;25.02;13.55;;;;;;;17.32;56.34;100412.00;4944436;29;20047;-45
2024/01/04 11:04:27;;;;;;;23.67;13.35;;;;;;;17.34;56.92;100405.50;4948442;29;20047;-44
2024/01/04 11:06:57;;;;;;;25.77;13.60;;;;;;;17.37;57.28;100407.03;4944322;29;20062;-44
2024/01/04 11:09:25;;;;;;;25.52;12.88;;;;;;;17.40;57.19;100404.00;4946882;28;20232;-45
2024/01/04 11:11:53;;;;;;;22.25;13.05;;;;;;;17.42;56.93;100412.72;4948514;28;20439;-44
2024/01/04 11:14:21;;;;;;;20.48;12.32;;;;;;;17.46;57.37;100406.06;4946353;28;20075;-44
2024/01/04 11:17:06;;;;;;;21.85;12.65;;;;;;;17.48;57.71;100401.34;4945629;28;20523;-41
2024/01/04 11:19:33;;;;;;;17.63;10.90;;;;;;;17.52;57.18;100398.19;4945607;29;20075;-43
2024/01/04 11:22:11;;;;;;;20.75;10.73;;;;;;;17.56;57.22;100397.88;4948211;29;20187;-42
2024/01/04 11:25:08;;;;;;;18.42;10.95;;;;;;;17.58;57.64;100404.75;4938352;29;20428;-43